sensor_id;sensor_type;location;lat;lon;timestamp;P1;durP1;ratioP1;P2;durP2;ratioP2
19919;SDS011;10122;50.074;19.920;2023-12-04T00:01:22;23.43;;;12.37;;
19919;SDS011;10122;50.074;19.920;2023-12-04T00:03:48;20.20;;;13.20;;
19919;SDS011;10122;50.074;19.920;2023-12-04T00:06:14;15.67;;;10.47;;
19919;SDS011;10122;50.074;19.920;2023-12-04T00:08:40;27.57;;;12.73;;
19919;SDS011;10122;50.074;19.920;2023-12-04T00:11:06;22.97;;;12.53;;
19919;SDS011;10122;50.074;19.920;2023-12-04T00:13:33;22.40;;;12.27;;
19919;SDS011;10122;50.074;19.920;2023-12-04T00:15:59;28.57;;;13.00;;
19919;SDS011;10122;50.074;19.920;2023-12-04T00:18:25;30.43;;;13.60;;
19919;SDS011;10122;50.074;19.920;2023-12-04T00:20:51;20.87;;;12.50;;
19919;SDS011;10122;50.074;19.920;2023-12-04T00:23:17;22.47;;;11.30;;
19919;SDS011;10122;50.074;19.920;2023-12-04T00:25:43;21.90;;;11.93;;
19919;SDS011;10122;50.074;19.920;2023-12-04T00:28:09;21.30;;;10.37;;
19919;SDS011;10122;50.074;19.920;2023-12-04T00:30:35;27.53;;;11.53;;
19919;SDS011;10122;50.074;19.920;2023-12-04T00:33:01;22.10;;;11.47;;
19919;SDS011;10122;50.074;19.920;2023-12-04T00:35:28;22.13;;;12.30;;
19919;SDS011;10122;50.074;19.920;2023-12-04T00:37:54;17.67;;;10.83;;
19919;SDS011;10122;50.074;19.920;2023-12-04T00:40:20;19.60;;;11.77;;
19919;SDS011;10122;50.074;19.920;2023-12-04T00:42:46;19.77;;;11.53;;
19919;SDS011;10122;50.074;19.920;2023-12-04T00:45:12;11.10;;;8.70;;
19919;SDS011;10122;50.074;19.920;2023-12-04T00:47:38;14.43;;;10.30;;
19919;SDS011;10122;50.074;19.920;2023-12-04T00:50:04;18.90;;;10.83;;
19919;SDS011;10122;50.074;19.920;2023-12-04T00:52:30;15.77;;;9.57;;
19919;SDS011;10122;50.074;19.920;2023-12-04T00:54:56;24.03;;;10.87;;
19919;SDS011;10122;50.074;19.920;2023-12-04T00:57:22;18.63;;;10.37;;
19919;SDS011;10122;50.074;19.920;2023-12-04T00:59:48;19.17;;;11.23;;
19919;SDS011;10122;50.074;19.920;2023-12-04T01:02:14;21.43;;;11.00;;
19919;SDS011;10122;50.074;19.920;2023-12-04T01:04:41;13.30;;;9.30;;
19919;SDS011;10122;50.074;19.920;2023-12-04T01:07:07;15.10;;;9.97;;
19919;SDS011;10122;50.074;19.920;2023-12-04T01:09:36;23.37;;;11.20;;
19919;SDS011;10122;50.074;19.920;2023-12-04T01:12:02;19.17;;;10.83;;
19919;SDS011;10122;50.074;19.920;2023-12-04T01:14:28;21.27;;;10.50;;
19919;SDS011;10122;50.074;19.920;2023-12-04T01:16:55;17.17;;;11.13;;
19919;SDS011;10122;50.074;19.920;2023-12-04T01:19:21;15.70;;;9.77;;
19919;SDS011;10122;50.074;19.920;2023-12-04T01:21:47;11.90;;;9.10;;
19919;SDS011;10122;50.074;19.920;2023-12-04T01:24:13;6.63;;;5.93;;
19919;SDS011;10122;50.074;19.920;2023-12-04T01:26:39;17.03;;;10.33;;
19919;SDS011;10122;50.074;19.920;2023-12-04T01:29:05;6.90;;;6.33;;
19919;SDS011;10122;50.074;19.920;2023-12-04T01:31:31;6.47;;;5.97;;
19919;SDS011;10122;50.074;19.920;2023-12-04T01:33:57;12.83;;;8.83;;
19919;SDS011;10122;50.074;19.920;2023-12-04T01:36:23;14.60;;;9.27;;
19919;SDS011;10122;50.074;19.920;2023-12-04T01:38:50;7.93;;;7.13;;
19919;SDS011;10122;50.074;19.920;2023-12-04T01:41:16;7.10;;;6.43;;
19919;SDS011;10122;50.074;19.920;2023-12-04T01:43:42;17.33;;;10.10;;
19919;SDS011;10122;50.074;19.920;2023-12-04T01:46:08;17.30;;;10.30;;
19919;SDS011;10122;50.074;19.920;2023-12-04T01:48:34;15.17;;;8.87;;
19919;SDS011;10122;50.074;19.920;2023-12-04T01:51:03;10.27;;;7.47;;
19919;SDS011;10122;50.074;19.920;2023-12-04T01:53:31;22.00;;;12.07;;
19919;SDS011;10122;50.074;19.920;2023-12-04T01:55:57;19.37;;;9.87;;
19919;SDS011;10122;50.074;19.920;2023-12-04T01:58:24;26.20;;;11.60;;
19919;SDS011;10122;50.074;19.920;2023-12-04T02:00:50;21.60;;;11.90;;
19919;SDS011;10122;50.074;19.920;2023-12-04T02:03:16;23.67;;;11.77;;
19919;SDS011;10122;50.074;19.920;2023-12-04T02:05:45;18.57;;;12.20;;
19919;SDS011;10122;50.074;19.920;2023-12-04T02:08:11;22.53;;;12.73;;
19919;SDS011;10122;50.074;19.920;2023-12-04T02:10:38;22.13;;;13.07;;
19919;SDS011;10122;50.074;19.920;2023-12-04T02:13:04;27.50;;;12.93;;
19919;SDS011;10122;50.074;19.920;2023-12-04T02:15:30;23.13;;;12.67;;
19919;SDS011;10122;50.074;19.920;2023-12-04T02:17:56;19.90;;;11.23;;
19919;SDS011;10122;50.074;19.920;2023-12-04T02:20:30;22.63;;;11.70;;
19919;SDS011;10122;50.074;19.920;2023-12-04T02:22:57;20.37;;;11.97;;
19919;SDS011;10122;50.074;19.920;2023-12-04T02:25:23;20.97;;;12.70;;
19919;SDS011;10122;50.074;19.920;2023-12-04T02:27:50;20.60;;;11.80;;
19919;SDS011;10122;50.074;19.920;2023-12-04T02:30:17;20.80;;;12.37;;
19919;SDS011;10122;50.074;19.920;2023-12-04T02:32:47;14.67;;;9.87;;
19919;SDS011;10122;50.074;19.920;2023-12-04T02:35:16;24.30;;;12.13;;
19919;SDS011;10122;50.074;19.920;2023-12-04T02:37:45;19.90;;;12.07;;
19919;SDS011;10122;50.074;19.920;2023-12-04T02:40:11;18.77;;;12.00;;
19919;SDS011;10122;50.074;19.920;2023-12-04T02:42:38;21.67;;;11.90;;
19919;SDS011;10122;50.074;19.920;2023-12-04T02:45:04;23.17;;;12.70;;
19919;SDS011;10122;50.074;19.920;2023-12-04T02:47:30;22.80;;;12.07;;
19919;SDS011;10122;50.074;19.920;2023-12-04T02:49:57;22.33;;;12.23;;
19919;SDS011;10122;50.074;19.920;2023-12-04T02:52:23;18.00;;;10.67;;
19919;SDS011;10122;50.074;19.920;2023-12-04T02:54:49;15.70;;;11.00;;
19919;SDS011;10122;50.074;19.920;2023-12-04T02:57:15;13.30;;;10.20;;
19919;SDS011;10122;50.074;19.920;2023-12-04T02:59:41;24.40;;;12.27;;
19919;SDS011;10122;50.074;19.920;2023-12-04T03:02:07;17.77;;;10.20;;
19919;SDS011;10122;50.074;19.920;2023-12-04T03:04:33;8.67;;;6.97;;
19919;SDS011;10122;50.074;19.920;2023-12-04T03:07:00;15.13;;;10.97;;
19919;SDS011;10122;50.074;19.920;2023-12-04T03:09:26;14.17;;;9.37;;
19919;SDS011;10122;50.074;19.920;2023-12-04T03:11:52;19.23;;;11.67;;
19919;SDS011;10122;50.074;19.920;2023-12-04T03:14:18;16.60;;;9.97;;
19919;SDS011;10122;50.074;19.920;2023-12-04T03:16:44;12.97;;;9.83;;
19919;SDS011;10122;50.074;19.920;2023-12-04T03:19:10;18.27;;;10.57;;
19919;SDS011;10122;50.074;19.920;2023-12-04T03:21:36;13.47;;;8.87;;
19919;SDS011;10122;50.074;19.920;2023-12-04T03:24:02;14.43;;;10.20;;
19919;SDS011;10122;50.074;19.920;2023-12-04T03:26:28;15.87;;;10.37;;
19919;SDS011;10122;50.074;19.920;2023-12-04T03:28:54;15.57;;;10.10;;
19919;SDS011;10122;50.074;19.920;2023-12-04T03:31:21;17.37;;;10.53;;
19919;SDS011;10122;50.074;19.920;2023-12-04T03:33:47;16.17;;;9.77;;
19919;SDS011;10122;50.074;19.920;2023-12-04T03:36:13;13.60;;;9.73;;
19919;SDS011;10122;50.074;19.920;2023-12-04T03:38:39;16.13;;;9.80;;
19919;SDS011;10122;50.074;19.920;2023-12-04T03:41:12;15.47;;;9.67;;
19919;SDS011;10122;50.074;19.920;2023-12-04T03:43:39;13.60;;;9.73;;
19919;SDS011;10122;50.074;19.920;2023-12-04T03:46:05;11.20;;;8.63;;
19919;SDS011;10122;50.074;19.920;2023-12-04T03:48:31;12.87;;;8.67;;
19919;SDS011;10122;50.074;19.920;2023-12-04T03:50:57;13.10;;;9.40;;
19919;SDS011;10122;50.074;19.920;2023-12-04T03:53:23;12.97;;;8.80;;
19919;SDS011;10122;50.074;19.920;2023-12-04T03:55:49;11.30;;;8.77;;
19919;SDS011;10122;50.074;19.920;2023-12-04T03:58:15;17.80;;;8.67;;
19919;SDS011;10122;50.074;19.920;2023-12-04T04:00:41;12.27;;;9.07;;
19919;SDS011;10122;50.074;19.920;2023-12-04T04:03:08;12.80;;;8.93;;
19919;SDS011;10122;50.074;19.920;2023-12-04T04:05:34;13.50;;;9.63;;
19919;SDS011;10122;50.074;19.920;2023-12-04T04:08:01;16.43;;;9.10;;
19919;SDS011;10122;50.074;19.920;2023-12-04T04:10:27;15.17;;;8.50;;
19919;SDS011;10122;50.074;19.920;2023-12-04T04:12:53;9.37;;;7.90;;
19919;SDS011;10122;50.074;19.920;2023-12-04T04:15:19;12.97;;;9.87;;
19919;SDS011;10122;50.074;19.920;2023-12-04T04:17:45;13.27;;;9.60;;
19919;SDS011;10122;50.074;19.920;2023-12-04T04:20:11;16.63;;;10.00;;
19919;SDS011;10122;50.074;19.920;2023-12-04T04:22:37;14.53;;;10.10;;
19919;SDS011;10122;50.074;19.920;2023-12-04T04:25:06;14.67;;;9.47;;
19919;SDS011;10122;50.074;19.920;2023-12-04T04:27:32;16.63;;;10.53;;
19919;SDS011;10122;50.074;19.920;2023-12-04T04:29:58;16.57;;;10.40;;
19919;SDS011;10122;50.074;19.920;2023-12-04T04:32:24;14.87;;;10.67;;
19919;SDS011;10122;50.074;19.920;2023-12-04T04:34:50;17.43;;;10.77;;
19919;SDS011;10122;50.074;19.920;2023-12-04T04:37:16;18.30;;;11.10;;
19919;SDS011;10122;50.074;19.920;2023-12-04T04:39:42;16.80;;;11.10;;
19919;SDS011;10122;50.074;19.920;2023-12-04T04:42:09;16.33;;;10.53;;
19919;SDS011;10122;50.074;19.920;2023-12-04T04:44:35;18.27;;;10.80;;
19919;SDS011;10122;50.074;19.920;2023-12-04T04:47:01;18.70;;;11.17;;
19919;SDS011;10122;50.074;19.920;2023-12-04T04:49:27;16.80;;;10.73;;
19919;SDS011;10122;50.074;19.920;2023-12-04T04:51:53;9.53;;;8.30;;
19919;SDS011;10122;50.074;19.920;2023-12-04T04:54:19;13.97;;;11.37;;
19919;SDS011;10122;50.074;19.920;2023-12-04T04:56:45;18.27;;;11.87;;
19919;SDS011;10122;50.074;19.920;2023-12-04T04:59:11;13.57;;;10.77;;
19919;SDS011;10122;50.074;19.920;2023-12-04T05:01:37;15.53;;;9.43;;
19919;SDS011;10122;50.074;19.920;2023-12-04T05:04:03;17.27;;;11.53;;
19919;SDS011;10122;50.074;19.920;2023-12-04T05:06:29;14.07;;;10.33;;
19919;SDS011;10122;50.074;19.920;2023-12-04T05:08:55;20.43;;;11.83;;
19919;SDS011;10122;50.074;19.920;2023-12-04T05:11:21;15.20;;;10.60;;
19919;SDS011;10122;50.074;19.920;2023-12-04T05:13:48;15.57;;;9.33;;
19919;SDS011;10122;50.074;19.920;2023-12-04T05:16:15;17.70;;;10.70;;
19919;SDS011;10122;50.074;19.920;2023-12-04T05:18:41;15.87;;;11.10;;
19919;SDS011;10122;50.074;19.920;2023-12-04T05:21:10;19.13;;;11.90;;
19919;SDS011;10122;50.074;19.920;2023-12-04T05:23:40;22.43;;;12.50;;
19919;SDS011;10122;50.074;19.920;2023-12-04T05:26:06;15.47;;;10.93;;
19919;SDS011;10122;50.074;19.920;2023-12-04T05:28:32;18.97;;;11.47;;
19919;SDS011;10122;50.074;19.920;2023-12-04T05:30:59;22.40;;;11.53;;
19919;SDS011;10122;50.074;19.920;2023-12-04T05:33:25;21.80;;;12.03;;
19919;SDS011;10122;50.074;19.920;2023-12-04T05:35:51;17.60;;;11.40;;
19919;SDS011;10122;50.074;19.920;2023-12-04T05:38:17;17.97;;;11.70;;
19919;SDS011;10122;50.074;19.920;2023-12-04T05:40:43;16.07;;;10.43;;
19919;SDS011;10122;50.074;19.920;2023-12-04T05:43:10;13.87;;;10.47;;
19919;SDS011;10122;50.074;19.920;2023-12-04T05:45:36;15.10;;;10.60;;
19919;SDS011;10122;50.074;19.920;2023-12-04T05:48:02;15.43;;;10.50;;
19919;SDS011;10122;50.074;19.920;2023-12-04T05:50:28;18.53;;;10.97;;
19919;SDS011;10122;50.074;19.920;2023-12-04T05:52:54;16.17;;;10.67;;
19919;SDS011;10122;50.074;19.920;2023-12-04T05:55:20;12.47;;;9.07;;
19919;SDS011;10122;50.074;19.920;2023-12-04T05:57:46;14.20;;;9.80;;
19919;SDS011;10122;50.074;19.920;2023-12-04T06:00:12;10.00;;;7.30;;
19919;SDS011;10122;50.074;19.920;2023-12-04T06:02:39;15.47;;;10.80;;
19919;SDS011;10122;50.074;19.920;2023-12-04T06:05:05;14.20;;;10.33;;
19919;SDS011;10122;50.074;19.920;2023-12-04T06:07:32;13.03;;;9.73;;
19919;SDS011;10122;50.074;19.920;2023-12-04T06:09:58;12.40;;;10.30;;
19919;SDS011;10122;50.074;19.920;2023-12-04T06:12:24;15.30;;;10.87;;
19919;SDS011;10122;50.074;19.920;2023-12-04T06:14:51;12.10;;;10.20;;
19919;SDS011;10122;50.074;19.920;2023-12-04T06:17:17;13.47;;;10.07;;
19919;SDS011;10122;50.074;19.920;2023-12-04T06:19:43;16.43;;;10.47;;
19919;SDS011;10122;50.074;19.920;2023-12-04T06:22:09;17.07;;;9.57;;
19919;SDS011;10122;50.074;19.920;2023-12-04T06:24:35;14.20;;;10.30;;
19919;SDS011;10122;50.074;19.920;2023-12-04T06:27:01;18.60;;;11.47;;
19919;SDS011;10122;50.074;19.920;2023-12-04T06:29:28;21.73;;;12.13;;
19919;SDS011;10122;50.074;19.920;2023-12-04T06:31:54;15.03;;;10.80;;
19919;SDS011;10122;50.074;19.920;2023-12-04T06:34:21;18.90;;;11.57;;
19919;SDS011;10122;50.074;19.920;2023-12-04T06:36:47;16.90;;;11.10;;
19919;SDS011;10122;50.074;19.920;2023-12-04T06:39:13;24.10;;;13.27;;
19919;SDS011;10122;50.074;19.920;2023-12-04T06:41:41;13.50;;;10.20;;
19919;SDS011;10122;50.074;19.920;2023-12-04T06:44:08;18.63;;;11.53;;
19919;SDS011;10122;50.074;19.920;2023-12-04T06:46:37;14.30;;;10.07;;
19919;SDS011;10122;50.074;19.920;2023-12-04T06:49:04;18.03;;;11.33;;
19919;SDS011;10122;50.074;19.920;2023-12-04T06:51:33;12.47;;;9.27;;
19919;SDS011;10122;50.074;19.920;2023-12-04T06:53:59;15.53;;;11.23;;
19919;SDS011;10122;50.074;19.920;2023-12-04T06:56:25;15.30;;;10.77;;
19919;SDS011;10122;50.074;19.920;2023-12-04T06:58:51;20.27;;;12.60;;
19919;SDS011;10122;50.074;19.920;2023-12-04T07:01:18;20.43;;;12.17;;
19919;SDS011;10122;50.074;19.920;2023-12-04T07:03:44;19.93;;;12.07;;
19919;SDS011;10122;50.074;19.920;2023-12-04T07:06:10;14.57;;;10.20;;
19919;SDS011;10122;50.074;19.920;2023-12-04T07:08:36;19.70;;;11.20;;
19919;SDS011;10122;50.074;19.920;2023-12-04T07:11:02;19.50;;;12.23;;
19919;SDS011;10122;50.074;19.920;2023-12-04T07:13:28;17.93;;;12.00;;
19919;SDS011;10122;50.074;19.920;2023-12-04T07:15:55;15.57;;;11.50;;
19919;SDS011;10122;50.074;19.920;2023-12-04T07:18:21;19.93;;;11.33;;
19919;SDS011;10122;50.074;19.920;2023-12-04T07:20:47;19.43;;;12.37;;
19919;SDS011;10122;50.074;19.920;2023-12-04T07:23:13;21.40;;;12.20;;
19919;SDS011;10122;50.074;19.920;2023-12-04T07:25:40;19.10;;;12.10;;
19919;SDS011;10122;50.074;19.920;2023-12-04T07:28:06;21.87;;;13.33;;
19919;SDS011;10122;50.074;19.920;2023-12-04T07:30:33;16.90;;;12.13;;
19919;SDS011;10122;50.074;19.920;2023-12-04T07:32:59;18.73;;;12.10;;
19919;SDS011;10122;50.074;19.920;2023-12-04T07:35:25;21.60;;;11.93;;
19919;SDS011;10122;50.074;19.920;2023-12-04T07:37:51;19.90;;;12.37;;
19919;SDS011;10122;50.074;19.920;2023-12-04T07:40:17;25.03;;;12.93;;
19919;SDS011;10122;50.074;19.920;2023-12-04T07:42:44;20.00;;;11.50;;
19919;SDS011;10122;50.074;19.920;2023-12-04T07:45:10;21.90;;;12.73;;
19919;SDS011;10122;50.074;19.920;2023-12-04T07:47:37;21.17;;;11.80;;
19919;SDS011;10122;50.074;19.920;2023-12-04T07:50:04;18.07;;;11.90;;
19919;SDS011;10122;50.074;19.920;2023-12-04T07:52:30;16.93;;;11.13;;
19919;SDS011;10122;50.074;19.920;2023-12-04T07:54:56;20.10;;;12.10;;
19919;SDS011;10122;50.074;19.920;2023-12-04T07:57:22;17.67;;;12.07;;
19919;SDS011;10122;50.074;19.920;2023-12-04T07:59:48;19.00;;;11.87;;
19919;SDS011;10122;50.074;19.920;2023-12-04T08:02:14;19.37;;;10.50;;
19919;SDS011;10122;50.074;19.920;2023-12-04T08:04:40;20.07;;;11.70;;
19919;SDS011;10122;50.074;19.920;2023-12-04T08:07:06;22.63;;;11.77;;
19919;SDS011;10122;50.074;19.920;2023-12-04T08:09:33;24.30;;;12.93;;
19919;SDS011;10122;50.074;19.920;2023-12-04T08:11:59;20.93;;;12.70;;
19919;SDS011;10122;50.074;19.920;2023-12-04T08:14:25;16.90;;;12.10;;
19919;SDS011;10122;50.074;19.920;2023-12-04T08:16:53;16.00;;;12.10;;
19919;SDS011;10122;50.074;19.920;2023-12-04T08:19:19;24.60;;;13.53;;
19919;SDS011;10122;50.074;19.920;2023-12-04T08:21:45;21.83;;;12.20;;
19919;SDS011;10122;50.074;19.920;2023-12-04T08:24:11;18.63;;;11.43;;
19919;SDS011;10122;50.074;19.920;2023-12-04T08:26:37;19.90;;;11.20;;
19919;SDS011;10122;50.074;19.920;2023-12-04T08:29:03;19.57;;;11.50;;
19919;SDS011;10122;50.074;19.920;2023-12-04T08:31:29;21.80;;;11.23;;
19919;SDS011;10122;50.074;19.920;2023-12-04T08:33:55;15.80;;;10.53;;
19919;SDS011;10122;50.074;19.920;2023-12-04T08:36:21;22.93;;;11.20;;
19919;SDS011;10122;50.074;19.920;2023-12-04T08:38:47;17.57;;;11.33;;
19919;SDS011;10122;50.074;19.920;2023-12-04T08:41:13;18.37;;;11.37;;
19919;SDS011;10122;50.074;19.920;2023-12-04T08:43:39;18.00;;;10.87;;
19919;SDS011;10122;50.074;19.920;2023-12-04T08:46:05;21.30;;;12.32;;
19919;SDS011;10122;50.074;19.920;2023-12-04T08:48:32;13.77;;;10.25;;
19919;SDS011;10122;50.074;19.920;2023-12-04T08:50:58;16.60;;;10.88;;
19919;SDS011;10122;50.074;19.920;2023-12-04T08:53:24;22.17;;;11.20;;
19919;SDS011;10122;50.074;19.920;2023-12-04T08:55:50;16.98;;;10.63;;
19919;SDS011;10122;50.074;19.920;2023-12-04T08:58:17;16.85;;;10.77;;
19919;SDS011;10122;50.074;19.920;2023-12-04T09:00:43;16.75;;;10.55;;
19919;SDS011;10122;50.074;19.920;2023-12-04T09:03:10;18.13;;;12.30;;
19919;SDS011;10122;50.074;19.920;2023-12-04T09:05:36;17.17;;;12.35;;
19919;SDS011;10122;50.074;19.920;2023-12-04T09:08:03;21.52;;;13.40;;
19919;SDS011;10122;50.074;19.920;2023-12-04T09:10:29;17.55;;;12.05;;
19919;SDS011;10122;50.074;19.920;2023-12-04T09:12:55;17.48;;;11.38;;
19919;SDS011;10122;50.074;19.920;2023-12-04T09:15:22;17.75;;;11.85;;
19919;SDS011;10122;50.074;19.920;2023-12-04T09:17:48;18.85;;;12.30;;
19919;SDS011;10122;50.074;19.920;2023-12-04T09:20:14;23.85;;;12.90;;
19919;SDS011;10122;50.074;19.920;2023-12-04T09:22:40;23.63;;;13.13;;
19919;SDS011;10122;50.074;19.920;2023-12-04T09:25:06;22.15;;;12.65;;
19919;SDS011;10122;50.074;19.920;2023-12-04T09:27:33;19.52;;;13.13;;
19919;SDS011;10122;50.074;19.920;2023-12-04T09:30:00;24.35;;;13.70;;
19919;SDS011;10122;50.074;19.920;2023-12-04T09:32:26;23.13;;;13.82;;
19919;SDS011;10122;50.074;19.920;2023-12-04T09:34:52;21.60;;;12.25;;
19919;SDS011;10122;50.074;19.920;2023-12-04T09:37:18;20.30;;;12.65;;
19919;SDS011;10122;50.074;19.920;2023-12-04T09:39:44;15.68;;;9.93;;
19919;SDS011;10122;50.074;19.920;2023-12-04T09:42:10;19.05;;;12.52;;
19919;SDS011;10122;50.074;19.920;2023-12-04T09:44:36;16.50;;;11.82;;
19919;SDS011;10122;50.074;19.920;2023-12-04T09:47:03;17.13;;;11.55;;
19919;SDS011;10122;50.074;19.920;2023-12-04T09:49:29;15.65;;;11.23;;
19919;SDS011;10122;50.074;19.920;2023-12-04T09:51:57;17.08;;;11.60;;
19919;SDS011;10122;50.074;19.920;2023-12-04T09:54:23;14.90;;;11.00;;
19919;SDS011;10122;50.074;19.920;2023-12-04T09:56:49;15.88;;;11.05;;
19919;SDS011;10122;50.074;19.920;2023-12-04T09:59:16;15.50;;;11.13;;
19919;SDS011;10122;50.074;19.920;2023-12-04T10:01:43;16.00;;;11.60;;
19919;SDS011;10122;50.074;19.920;2023-12-04T10:04:09;17.15;;;12.05;;
19919;SDS011;10122;50.074;19.920;2023-12-04T10:06:36;17.83;;;11.98;;
19919;SDS011;10122;50.074;19.920;2023-12-04T10:09:03;18.92;;;12.00;;
19919;SDS011;10122;50.074;19.920;2023-12-04T10:11:29;16.85;;;11.98;;
19919;SDS011;10122;50.074;19.920;2023-12-04T10:13:55;17.05;;;11.30;;
19919;SDS011;10122;50.074;19.920;2023-12-04T10:16:31;18.88;;;12.40;;
19919;SDS011;10122;50.074;19.920;2023-12-04T10:19:01;20.55;;;11.65;;
19919;SDS011;10122;50.074;19.920;2023-12-04T10:21:39;14.52;;;10.70;;
19919;SDS011;10122;50.074;19.920;2023-12-04T10:24:05;19.27;;;11.05;;
19919;SDS011;10122;50.074;19.920;2023-12-04T10:26:31;18.20;;;13.10;;
19919;SDS011;10122;50.074;19.920;2023-12-04T10:28:58;18.63;;;12.25;;
19919;SDS011;10122;50.074;19.920;2023-12-04T10:31:25;21.33;;;12.45;;
19919;SDS011;10122;50.074;19.920;2023-12-04T10:33:51;15.85;;;11.50;;
19919;SDS011;10122;50.074;19.920;2023-12-04T10:36:17;17.52;;;12.07;;
19919;SDS011;10122;50.074;19.920;2023-12-04T10:38:44;16.33;;;12.60;;
19919;SDS011;10122;50.074;19.920;2023-12-04T10:41:13;15.20;;;11.77;;
19919;SDS011;10122;50.074;19.920;2023-12-04T10:43:46;15.98;;;11.73;;
19919;SDS011;10122;50.074;19.920;2023-12-04T10:46:14;15.73;;;12.25;;
19919;SDS011;10122;50.074;19.920;2023-12-04T10:48:47;15.52;;;11.55;;
19919;SDS011;10122;50.074;19.920;2023-12-04T10:51:13;17.58;;;12.73;;
19919;SDS011;10122;50.074;19.920;2023-12-04T10:53:42;13.68;;;10.70;;
19919;SDS011;10122;50.074;19.920;2023-12-04T10:56:14;11.77;;;10.32;;
19919;SDS011;10122;50.074;19.920;2023-12-04T10:58:42;14.68;;;11.45;;
19919;SDS011;10122;50.074;19.920;2023-12-04T11:01:09;14.52;;;10.98;;
19919;SDS011;10122;50.074;19.920;2023-12-04T11:03:40;15.30;;;11.07;;
19919;SDS011;10122;50.074;19.920;2023-12-04T11:06:09;12.88;;;10.50;;
19919;SDS011;10122;50.074;19.920;2023-12-04T11:08:37;14.18;;;11.23;;
19919;SDS011;10122;50.074;19.920;2023-12-04T11:11:05;12.95;;;10.32;;
19919;SDS011;10122;50.074;19.920;2023-12-04T11:13:41;13.88;;;10.35;;
19919;SDS011;10122;50.074;19.920;2023-12-04T11:16:10;13.05;;;9.48;;
19919;SDS011;10122;50.074;19.920;2023-12-04T11:18:38;12.73;;;10.25;;
19919;SDS011;10122;50.074;19.920;2023-12-04T11:21:08;17.45;;;10.10;;
19919;SDS011;10122;50.074;19.920;2023-12-04T11:23:35;14.02;;;10.75;;
19919;SDS011;10122;50.074;19.920;2023-12-04T11:26:02;13.95;;;10.70;;
19919;SDS011;10122;50.074;19.920;2023-12-04T11:28:29;13.48;;;10.30;;
19919;SDS011;10122;50.074;19.920;2023-12-04T11:30:56;15.52;;;10.85;;
19919;SDS011;10122;50.074;19.920;2023-12-04T11:33:23;15.88;;;10.77;;
19919;SDS011;10122;50.074;19.920;2023-12-04T11:35:49;13.80;;;10.45;;
19919;SDS011;10122;50.074;19.920;2023-12-04T11:38:18;15.63;;;11.60;;
19919;SDS011;10122;50.074;19.920;2023-12-04T11:40:48;14.65;;;11.27;;
19919;SDS011;10122;50.074;19.920;2023-12-04T11:43:20;12.57;;;9.77;;
19919;SDS011;10122;50.074;19.920;2023-12-04T11:45:47;13.02;;;10.50;;
19919;SDS011;10122;50.074;19.920;2023-12-04T11:48:14;13.05;;;10.35;;
19919;SDS011;10122;50.074;19.920;2023-12-04T11:50:42;14.90;;;11.05;;
19919;SDS011;10122;50.074;19.920;2023-12-04T11:53:09;15.73;;;11.50;;
19919;SDS011;10122;50.074;19.920;2023-12-04T11:55:36;15.35;;;10.70;;
19919;SDS011;10122;50.074;19.920;2023-12-04T11:58:08;13.55;;;11.20;;
19919;SDS011;10122;50.074;19.920;2023-12-04T12:00:34;16.77;;;11.32;;
19919;SDS011;10122;50.074;19.920;2023-12-04T12:03:02;14.35;;;10.60;;
19919;SDS011;10122;50.074;19.920;2023-12-04T12:05:31;14.23;;;10.95;;
19919;SDS011;10122;50.074;19.920;2023-12-04T12:07:59;11.57;;;9.50;;
19919;SDS011;10122;50.074;19.920;2023-12-04T12:10:25;15.55;;;10.70;;
19919;SDS011;10122;50.074;19.920;2023-12-04T12:12:52;14.18;;;11.07;;
19919;SDS011;10122;50.074;19.920;2023-12-04T12:15:18;14.68;;;10.50;;
19919;SDS011;10122;50.074;19.920;2023-12-04T12:17:44;12.75;;;10.25;;
19919;SDS011;10122;50.074;19.920;2023-12-04T12:20:12;14.57;;;9.90;;
19919;SDS011;10122;50.074;19.920;2023-12-04T12:22:38;11.38;;;9.85;;
19919;SDS011;10122;50.074;19.920;2023-12-04T12:25:06;13.25;;;10.10;;
19919;SDS011;10122;50.074;19.920;2023-12-04T12:27:33;11.10;;;9.68;;
19919;SDS011;10122;50.074;19.920;2023-12-04T12:29:59;14.27;;;10.93;;
19919;SDS011;10122;50.074;19.920;2023-12-04T12:32:26;17.48;;;11.20;;
19919;SDS011;10122;50.074;19.920;2023-12-04T12:34:52;13.23;;;10.35;;
19919;SDS011;10122;50.074;19.920;2023-12-04T12:37:19;16.50;;;11.43;;
19919;SDS011;10122;50.074;19.920;2023-12-04T12:39:45;15.05;;;10.00;;
19919;SDS011;10122;50.074;19.920;2023-12-04T12:42:12;13.82;;;10.88;;
19919;SDS011;10122;50.074;19.920;2023-12-04T12:44:46;14.20;;;10.77;;
19919;SDS011;10122;50.074;19.920;2023-12-04T12:47:15;16.77;;;11.32;;
19919;SDS011;10122;50.074;19.920;2023-12-04T12:49:41;12.57;;;9.77;;
19919;SDS011;10122;50.074;19.920;2023-12-04T12:52:07;15.98;;;10.50;;
19919;SDS011;10122;50.074;19.920;2023-12-04T12:54:33;13.93;;;10.85;;
19919;SDS011;10122;50.074;19.920;2023-12-04T12:57:01;15.27;;;10.90;;
19919;SDS011;10122;50.074;19.920;2023-12-04T12:59:27;14.43;;;10.70;;
19919;SDS011;10122;50.074;19.920;2023-12-04T13:01:54;14.70;;;10.90;;
19919;SDS011;10122;50.074;19.920;2023-12-04T13:04:21;15.63;;;11.07;;
19919;SDS011;10122;50.074;19.920;2023-12-04T13:06:48;17.15;;;11.27;;
19919;SDS011;10122;50.074;19.920;2023-12-04T13:09:14;13.13;;;10.95;;
19919;SDS011;10122;50.074;19.920;2023-12-04T13:11:45;10.57;;;8.48;;
19919;SDS011;10122;50.074;19.920;2023-12-04T13:14:11;13.30;;;10.10;;
19919;SDS011;10122;50.074;19.920;2023-12-04T13:16:38;17.45;;;12.10;;
19919;SDS011;10122;50.074;19.920;2023-12-04T13:19:05;17.73;;;11.13;;
19919;SDS011;10122;50.074;19.920;2023-12-04T13:21:31;18.42;;;11.57;;
19919;SDS011;10122;50.074;19.920;2023-12-04T13:23:57;13.82;;;11.18;;
19919;SDS011;10122;50.074;19.920;2023-12-04T13:26:23;17.63;;;12.00;;
19919;SDS011;10122;50.074;19.920;2023-12-04T13:28:49;15.23;;;11.77;;
19919;SDS011;10122;50.074;19.920;2023-12-04T13:31:16;17.65;;;12.90;;
19919;SDS011;10122;50.074;19.920;2023-12-04T13:33:42;22.65;;;12.43;;
19919;SDS011;10122;50.074;19.920;2023-12-04T13:36:11;18.58;;;12.50;;
19919;SDS011;10122;50.074;19.920;2023-12-04T13:38:37;14.38;;;11.80;;
19919;SDS011;10122;50.074;19.920;2023-12-04T13:41:03;15.80;;;12.40;;
19919;SDS011;10122;50.074;19.920;2023-12-04T13:43:48;19.50;;;12.48;;
19919;SDS011;10122;50.074;19.920;2023-12-04T13:46:17;17.60;;;12.20;;
19919;SDS011;10122;50.074;19.920;2023-12-04T13:48:43;15.10;;;12.48;;
19919;SDS011;10122;50.074;19.920;2023-12-04T13:51:09;19.40;;;12.40;;
19919;SDS011;10122;50.074;19.920;2023-12-04T13:53:35;18.15;;;12.70;;
19919;SDS011;10122;50.074;19.920;2023-12-04T13:56:07;19.38;;;13.15;;
19919;SDS011;10122;50.074;19.920;2023-12-04T13:58:53;15.40;;;12.07;;
19919;SDS011;10122;50.074;19.920;2023-12-04T14:01:25;21.52;;;12.32;;
19919;SDS011;10122;50.074;19.920;2023-12-04T14:03:54;20.83;;;14.48;;
19919;SDS011;10122;50.074;19.920;2023-12-04T14:06:27;19.85;;;13.75;;
19919;SDS011;10122;50.074;19.920;2023-12-04T14:08:53;17.73;;;12.80;;